sensor_id;sensor_type;location;lat;lon;timestamp;P1;durP1;ratioP1;P2;durP2;ratioP2
15106;SDS011;7654;45.308;-75.096;2023-06-05T00:00:19;0.20;;;0.20;;
15106;SDS011;7654;45.308;-75.096;2023-06-05T00:02:49;0.20;;;0.20;;
15106;SDS011;7654;45.308;-75.096;2023-06-05T00:05:20;0.20;;;0.20;;
15106;SDS011;7654;45.308;-75.096;2023-06-05T00:07:54;0.20;;;0.20;;
15106;SDS011;7654;45.308;-75.096;2023-06-05T00:10:25;0.20;;;0.20;;
15106;SDS011;7654;45.308;-75.096;2023-06-05T00:12:56;0.20;;;0.20;;
15106;SDS011;7654;45.308;-75.096;2023-06-05T00:15:26;0.20;;;0.20;;
15106;SDS011;7654;45.308;-75.096;2023-06-05T00:17:58;0.20;;;0.20;;
15106;SDS011;7654;45.308;-75.096;2023-06-05T00:20:30;0.20;;;0.20;;
15106;SDS011;7654;45.308;-75.096;2023-06-05T00:23:02;0.20;;;0.20;;
15106;SDS011;7654;45.308;-75.096;2023-06-05T00:25:33;0.20;;;0.20;;
15106;SDS011;7654;45.308;-75.096;2023-06-05T00:28:03;0.20;;;0.20;;
15106;SDS011;7654;45.308;-75.096;2023-06-05T00:30:34;0.20;;;0.20;;
15106;SDS011;7654;45.308;-75.096;2023-06-05T00:33:04;0.20;;;0.20;;
15106;SDS011;7654;45.308;-75.096;2023-06-05T00:35:34;0.30;;;0.30;;
15106;SDS011;7654;45.308;-75.096;2023-06-05T00:38:06;0.20;;;0.20;;
15106;SDS011;7654;45.308;-75.096;2023-06-05T00:40:36;0.20;;;0.20;;
15106;SDS011;7654;45.308;-75.096;2023-06-05T00:43:07;0.20;;;0.20;;
15106;SDS011;7654;45.308;-75.096;2023-06-05T00:45:37;0.30;;;0.30;;
15106;SDS011;7654;45.308;-75.096;2023-06-05T00:48:08;0.20;;;0.20;;
15106;SDS011;7654;45.308;-75.096;2023-06-05T00:50:38;0.20;;;0.20;;
15106;SDS011;7654;45.308;-75.096;2023-06-05T00:53:10;0.30;;;0.30;;
15106;SDS011;7654;45.308;-75.096;2023-06-05T00:55:41;0.30;;;0.30;;
15106;SDS011;7654;45.308;-75.096;2023-06-05T00:58:11;0.30;;;0.30;;
15106;SDS011;7654;45.308;-75.096;2023-06-05T01:00:44;0.23;;;0.23;;
15106;SDS011;7654;45.308;-75.096;2023-06-05T01:03:17;0.20;;;0.20;;
15106;SDS011;7654;45.308;-75.096;2023-06-05T01:05:47;0.20;;;0.20;;
15106;SDS011;7654;45.308;-75.096;2023-06-05T01:08:19;0.30;;;0.30;;
15106;SDS011;7654;45.308;-75.096;2023-06-05T01:10:52;0.30;;;0.30;;
15106;SDS011;7654;45.308;-75.096;2023-06-05T01:13:25;0.30;;;0.30;;
15106;SDS011;7654;45.308;-75.096;2023-06-05T01:15:58;0.30;;;0.30;;
15106;SDS011;7654;45.308;-75.096;2023-06-05T01:18:32;0.30;;;0.30;;
15106;SDS011;7654;45.308;-75.096;2023-06-05T01:21:10;0.23;;;0.23;;
15106;SDS011;7654;45.308;-75.096;2023-06-05T01:23:56;0.20;;;0.20;;
15106;SDS011;7654;45.308;-75.096;2023-06-05T01:26:28;0.30;;;0.30;;
15106;SDS011;7654;45.308;-75.096;2023-06-05T01:29:03;0.30;;;0.30;;
15106;SDS011;7654;45.308;-75.096;2023-06-05T01:31:39;0.30;;;0.30;;
15106;SDS011;7654;45.308;-75.096;2023-06-05T01:34:15;0.20;;;0.20;;
15106;SDS011;7654;45.308;-75.096;2023-06-05T01:36:48;0.20;;;0.20;;
15106;SDS011;7654;45.308;-75.096;2023-06-05T01:39:21;0.30;;;0.30;;
15106;SDS011;7654;45.308;-75.096;2023-06-05T01:41:56;0.30;;;0.30;;
15106;SDS011;7654;45.308;-75.096;2023-06-05T01:44:29;0.30;;;0.30;;
15106;SDS011;7654;45.308;-75.096;2023-06-05T01:47:00;0.30;;;0.30;;
15106;SDS011;7654;45.308;-75.096;2023-06-05T01:49:31;0.30;;;0.30;;
15106;SDS011;7654;45.308;-75.096;2023-06-05T01:52:03;0.30;;;0.30;;
15106;SDS011;7654;45.308;-75.096;2023-06-05T01:54:35;0.30;;;0.30;;
15106;SDS011;7654;45.308;-75.096;2023-06-05T01:57:06;0.40;;;0.40;;
15106;SDS011;7654;45.308;-75.096;2023-06-05T01:59:36;0.30;;;0.30;;
15106;SDS011;7654;45.308;-75.096;2023-06-05T02:02:07;0.30;;;0.30;;
15106;SDS011;7654;45.308;-75.096;2023-06-05T02:04:37;0.30;;;0.30;;
15106;SDS011;7654;45.308;-75.096;2023-06-05T02:07:08;0.30;;;0.30;;
15106;SDS011;7654;45.308;-75.096;2023-06-05T02:09:40;0.30;;;0.30;;
15106;SDS011;7654;45.308;-75.096;2023-06-05T02:12:10;0.40;;;0.40;;
15106;SDS011;7654;45.308;-75.096;2023-06-05T02:14:43;0.40;;;0.40;;
15106;SDS011;7654;45.308;-75.096;2023-06-05T02:17:14;0.30;;;0.30;;
15106;SDS011;7654;45.308;-75.096;2023-06-05T02:19:45;0.30;;;0.30;;
15106;SDS011;7654;45.308;-75.096;2023-06-05T02:22:16;0.40;;;0.40;;
15106;SDS011;7654;45.308;-75.096;2023-06-05T02:24:48;0.33;;;0.33;;
15106;SDS011;7654;45.308;-75.096;2023-06-05T02:27:19;0.40;;;0.40;;
15106;SDS011;7654;45.308;-75.096;2023-06-05T02:29:51;0.40;;;0.40;;
15106;SDS011;7654;45.308;-75.096;2023-06-05T02:32:22;0.30;;;0.30;;
15106;SDS011;7654;45.308;-75.096;2023-06-05T02:34:53;0.40;;;0.40;;
15106;SDS011;7654;45.308;-75.096;2023-06-05T02:37:24;0.40;;;0.40;;
15106;SDS011;7654;45.308;-75.096;2023-06-05T02:39:56;0.30;;;0.30;;
15106;SDS011;7654;45.308;-75.096;2023-06-05T02:42:27;0.20;;;0.20;;
15106;SDS011;7654;45.308;-75.096;2023-06-05T02:44:57;0.30;;;0.30;;
15106;SDS011;7654;45.308;-75.096;2023-06-05T02:47:27;0.40;;;0.40;;
15106;SDS011;7654;45.308;-75.096;2023-06-05T02:49:58;0.40;;;0.40;;
15106;SDS011;7654;45.308;-75.096;2023-06-05T02:52:28;0.40;;;0.40;;
15106;SDS011;7654;45.308;-75.096;2023-06-05T02:55:04;0.40;;;0.40;;
15106;SDS011;7654;45.308;-75.096;2023-06-05T02:57:35;0.37;;;0.37;;
15106;SDS011;7654;45.308;-75.096;2023-06-05T03:00:09;0.37;;;0.37;;
15106;SDS011;7654;45.308;-75.096;2023-06-05T03:02:44;0.40;;;0.40;;
15106;SDS011;7654;45.308;-75.096;2023-06-05T03:05:16;0.30;;;0.30;;
15106;SDS011;7654;45.308;-75.096;2023-06-05T03:07:52;0.40;;;0.40;;
15106;SDS011;7654;45.308;-75.096;2023-06-05T03:10:25;0.50;;;0.50;;
15106;SDS011;7654;45.308;-75.096;2023-06-05T03:12:55;0.40;;;0.40;;
15106;SDS011;7654;45.308;-75.096;2023-06-05T03:15:25;0.30;;;0.30;;
15106;SDS011;7654;45.308;-75.096;2023-06-05T03:17:56;0.40;;;0.40;;
15106;SDS011;7654;45.308;-75.096;2023-06-05T03:20:27;0.40;;;0.40;;
15106;SDS011;7654;45.308;-75.096;2023-06-05T03:22:58;0.30;;;0.30;;
15106;SDS011;7654;45.308;-75.096;2023-06-05T03:25:29;0.40;;;0.40;;
15106;SDS011;7654;45.308;-75.096;2023-06-05T03:28:00;0.40;;;0.40;;
15106;SDS011;7654;45.308;-75.096;2023-06-05T03:30:30;0.40;;;0.40;;
15106;SDS011;7654;45.308;-75.096;2023-06-05T03:33:00;0.40;;;0.40;;
15106;SDS011;7654;45.308;-75.096;2023-06-05T03:35:30;0.40;;;0.40;;
15106;SDS011;7654;45.308;-75.096;2023-06-05T03:38:02;0.40;;;0.40;;
15106;SDS011;7654;45.308;-75.096;2023-06-05T03:40:34;0.30;;;0.30;;
15106;SDS011;7654;45.308;-75.096;2023-06-05T03:43:06;0.50;;;0.50;;
15106;SDS011;7654;45.308;-75.096;2023-06-05T03:45:37;0.40;;;0.40;;
15106;SDS011;7654;45.308;-75.096;2023-06-05T03:48:07;0.40;;;0.40;;
15106;SDS011;7654;45.308;-75.096;2023-06-05T03:50:38;0.40;;;0.40;;
15106;SDS011;7654;45.308;-75.096;2023-06-05T03:53:08;0.40;;;0.40;;
15106;SDS011;7654;45.308;-75.096;2023-06-05T03:55:42;0.47;;;0.47;;
15106;SDS011;7654;45.308;-75.096;2023-06-05T03:58:13;0.40;;;0.40;;
15106;SDS011;7654;45.308;-75.096;2023-06-05T04:00:44;0.40;;;0.40;;
15106;SDS011;7654;45.308;-75.096;2023-06-05T04:03:16;0.40;;;0.40;;
15106;SDS011;7654;45.308;-75.096;2023-06-05T04:05:48;0.40;;;0.40;;
15106;SDS011;7654;45.308;-75.096;2023-06-05T04:08:18;0.50;;;0.50;;
15106;SDS011;7654;45.308;-75.096;2023-06-05T04:10:52;0.50;;;0.50;;
15106;SDS011;7654;45.308;-75.096;2023-06-05T04:13:22;0.33;;;0.33;;
15106;SDS011;7654;45.308;-75.096;2023-06-05T04:15:53;0.50;;;0.50;;
15106;SDS011;7654;45.308;-75.096;2023-06-05T04:18:23;0.40;;;0.40;;
15106;SDS011;7654;45.308;-75.096;2023-06-05T04:20:53;0.40;;;0.40;;
15106;SDS011;7654;45.308;-75.096;2023-06-05T04:23:24;0.40;;;0.40;;
15106;SDS011;7654;45.308;-75.096;2023-06-05T04:25:56;0.40;;;0.40;;
15106;SDS011;7654;45.308;-75.096;2023-06-05T04:28:26;0.40;;;0.40;;
15106;SDS011;7654;45.308;-75.096;2023-06-05T04:30:56;0.40;;;0.40;;
15106;SDS011;7654;45.308;-75.096;2023-06-05T04:33:27;0.40;;;0.40;;
15106;SDS011;7654;45.308;-75.096;2023-06-05T04:35:57;0.40;;;0.40;;
15106;SDS011;7654;45.308;-75.096;2023-06-05T04:38:27;0.40;;;0.40;;
15106;SDS011;7654;45.308;-75.096;2023-06-05T04:40:59;0.40;;;0.40;;
15106;SDS011;7654;45.308;-75.096;2023-06-05T04:43:29;0.50;;;0.50;;
15106;SDS011;7654;45.308;-75.096;2023-06-05T04:46:00;0.40;;;0.40;;
15106;SDS011;7654;45.308;-75.096;2023-06-05T04:48:30;0.40;;;0.40;;
15106;SDS011;7654;45.308;-75.096;2023-06-05T04:51:02;0.40;;;0.40;;
15106;SDS011;7654;45.308;-75.096;2023-06-05T04:53:32;0.40;;;0.40;;
15106;SDS011;7654;45.308;-75.096;2023-06-05T04:56:04;0.30;;;0.30;;
15106;SDS011;7654;45.308;-75.096;2023-06-05T04:58:35;0.43;;;0.43;;
15106;SDS011;7654;45.308;-75.096;2023-06-05T05:01:06;0.40;;;0.40;;
15106;SDS011;7654;45.308;-75.096;2023-06-05T05:03:37;0.50;;;0.50;;
15106;SDS011;7654;45.308;-75.096;2023-06-05T05:06:10;0.40;;;0.40;;
15106;SDS011;7654;45.308;-75.096;2023-06-05T05:08:42;0.33;;;0.33;;
15106;SDS011;7654;45.308;-75.096;2023-06-05T05:11:15;0.40;;;0.40;;
15106;SDS011;7654;45.308;-75.096;2023-06-05T05:13:46;0.40;;;0.40;;
15106;SDS011;7654;45.308;-75.096;2023-06-05T05:16:16;0.40;;;0.40;;
15106;SDS011;7654;45.308;-75.096;2023-06-05T05:18:48;0.50;;;0.50;;
15106;SDS011;7654;45.308;-75.096;2023-06-05T05:21:18;0.50;;;0.50;;
15106;SDS011;7654;45.308;-75.096;2023-06-05T05:23:49;0.43;;;0.43;;
15106;SDS011;7654;45.308;-75.096;2023-06-05T05:26:21;0.50;;;0.50;;
15106;SDS011;7654;45.308;-75.096;2023-06-05T05:28:53;0.50;;;0.50;;
15106;SDS011;7654;45.308;-75.096;2023-06-05T05:31:23;0.50;;;0.50;;
15106;SDS011;7654;45.308;-75.096;2023-06-05T05:33:53;0.40;;;0.40;;
15106;SDS011;7654;45.308;-75.096;2023-06-05T05:36:24;0.47;;;0.47;;
15106;SDS011;7654;45.308;-75.096;2023-06-05T05:38:55;0.40;;;0.40;;
15106;SDS011;7654;45.308;-75.096;2023-06-05T05:41:27;0.50;;;0.50;;
15106;SDS011;7654;45.308;-75.096;2023-06-05T05:43:57;0.50;;;0.50;;
15106;SDS011;7654;45.308;-75.096;2023-06-05T05:46:27;0.40;;;0.40;;
15106;SDS011;7654;45.308;-75.096;2023-06-05T05:48:57;0.50;;;0.50;;
15106;SDS011;7654;45.308;-75.096;2023-06-05T05:51:28;0.47;;;0.47;;
15106;SDS011;7654;45.308;-75.096;2023-06-05T05:53:58;0.50;;;0.50;;
15106;SDS011;7654;45.308;-75.096;2023-06-05T05:56:30;0.47;;;0.47;;
15106;SDS011;7654;45.308;-75.096;2023-06-05T05:59:02;0.50;;;0.50;;
15106;SDS011;7654;45.308;-75.096;2023-06-05T06:01:32;0.40;;;0.40;;
15106;SDS011;7654;45.308;-75.096;2023-06-05T06:04:03;0.40;;;0.40;;
15106;SDS011;7654;45.308;-75.096;2023-06-05T06:06:33;0.40;;;0.40;;
15106;SDS011;7654;45.308;-75.096;2023-06-05T06:09:05;0.50;;;0.50;;
15106;SDS011;7654;45.308;-75.096;2023-06-05T06:11:38;0.50;;;0.50;;
15106;SDS011;7654;45.308;-75.096;2023-06-05T06:14:08;0.50;;;0.50;;
15106;SDS011;7654;45.308;-75.096;2023-06-05T06:16:39;0.50;;;0.50;;
15106;SDS011;7654;45.308;-75.096;2023-06-05T06:19:11;0.50;;;0.50;;
15106;SDS011;7654;45.308;-75.096;2023-06-05T06:21:43;0.40;;;0.40;;
15106;SDS011;7654;45.308;-75.096;2023-06-05T06:24:13;0.50;;;0.50;;
15106;SDS011;7654;45.308;-75.096;2023-06-05T06:26:46;0.40;;;0.40;;
15106;SDS011;7654;45.308;-75.096;2023-06-05T06:29:17;0.40;;;0.40;;
15106;SDS011;7654;45.308;-75.096;2023-06-05T06:31:51;0.40;;;0.40;;
15106;SDS011;7654;45.308;-75.096;2023-06-05T06:34:21;0.40;;;0.40;;
15106;SDS011;7654;45.308;-75.096;2023-06-05T06:36:52;0.60;;;0.60;;
15106;SDS011;7654;45.308;-75.096;2023-06-05T06:39:22;0.50;;;0.50;;
15106;SDS011;7654;45.308;-75.096;2023-06-05T06:41:55;0.40;;;0.40;;
15106;SDS011;7654;45.308;-75.096;2023-06-05T06:44:25;0.40;;;0.40;;
15106;SDS011;7654;45.308;-75.096;2023-06-05T06:46:56;0.47;;;0.47;;
15106;SDS011;7654;45.308;-75.096;2023-06-05T06:49:26;0.50;;;0.50;;
15106;SDS011;7654;45.308;-75.096;2023-06-05T06:51:57;0.50;;;0.50;;
15106;SDS011;7654;45.308;-75.096;2023-06-05T06:54:27;0.40;;;0.40;;
15106;SDS011;7654;45.308;-75.096;2023-06-05T06:57:00;0.50;;;0.50;;
15106;SDS011;7654;45.308;-75.096;2023-06-05T06:59:30;0.40;;;0.40;;
15106;SDS011;7654;45.308;-75.096;2023-06-05T07:02:09;0.50;;;0.50;;
15106;SDS011;7654;45.308;-75.096;2023-06-05T07:04:41;0.50;;;0.50;;
15106;SDS011;7654;45.308;-75.096;2023-06-05T07:07:13;0.50;;;0.50;;
15106;SDS011;7654;45.308;-75.096;2023-06-05T07:09:45;0.40;;;0.40;;
15106;SDS011;7654;45.308;-75.096;2023-06-05T07:12:17;0.57;;;0.57;;
15106;SDS011;7654;45.308;-75.096;2023-06-05T07:14:50;0.50;;;0.50;;
15106;SDS011;7654;45.308;-75.096;2023-06-05T07:17:21;0.50;;;0.50;;
15106;SDS011;7654;45.308;-75.096;2023-06-05T07:19:55;0.47;;;0.47;;
15106;SDS011;7654;45.308;-75.096;2023-06-05T07:22:25;0.50;;;0.50;;
15106;SDS011;7654;45.308;-75.096;2023-06-05T07:24:57;0.40;;;0.40;;
15106;SDS011;7654;45.308;-75.096;2023-06-05T07:27:29;0.50;;;0.50;;
15106;SDS011;7654;45.308;-75.096;2023-06-05T07:30:00;0.50;;;0.50;;
15106;SDS011;7654;45.308;-75.096;2023-06-05T07:32:30;0.50;;;0.50;;
15106;SDS011;7654;45.308;-75.096;2023-06-05T07:35:01;0.50;;;0.50;;
15106;SDS011;7654;45.308;-75.096;2023-06-05T07:37:31;0.47;;;0.47;;
15106;SDS011;7654;45.308;-75.096;2023-06-05T07:40:01;0.47;;;0.47;;
15106;SDS011;7654;45.308;-75.096;2023-06-05T07:42:34;0.50;;;0.50;;
15106;SDS011;7654;45.308;-75.096;2023-06-05T07:45:05;0.50;;;0.50;;
15106;SDS011;7654;45.308;-75.096;2023-06-05T07:47:36;0.50;;;0.50;;
15106;SDS011;7654;45.308;-75.096;2023-06-05T07:50:06;0.50;;;0.50;;
15106;SDS011;7654;45.308;-75.096;2023-06-05T07:52:38;0.50;;;0.50;;
15106;SDS011;7654;45.308;-75.096;2023-06-05T07:55:08;0.60;;;0.60;;
15106;SDS011;7654;45.308;-75.096;2023-06-05T07:57:40;0.50;;;0.50;;
15106;SDS011;7654;45.308;-75.096;2023-06-05T08:00:11;0.50;;;0.50;;
15106;SDS011;7654;45.308;-75.096;2023-06-05T08:02:43;0.50;;;0.50;;
15106;SDS011;7654;45.308;-75.096;2023-06-05T08:05:13;0.50;;;0.50;;
15106;SDS011;7654;45.308;-75.096;2023-06-05T08:07:44;0.50;;;0.50;;
15106;SDS011;7654;45.308;-75.096;2023-06-05T08:10:15;0.50;;;0.50;;
15106;SDS011;7654;45.308;-75.096;2023-06-05T08:12:47;0.43;;;0.43;;
15106;SDS011;7654;45.308;-75.096;2023-06-05T08:15:17;0.50;;;0.50;;
15106;SDS011;7654;45.308;-75.096;2023-06-05T08:17:47;0.50;;;0.50;;
15106;SDS011;7654;45.308;-75.096;2023-06-05T08:20:18;0.50;;;0.50;;
15106;SDS011;7654;45.308;-75.096;2023-06-05T08:22:48;0.50;;;0.50;;
15106;SDS011;7654;45.308;-75.096;2023-06-05T08:25:19;0.50;;;0.50;;
15106;SDS011;7654;45.308;-75.096;2023-06-05T08:27:51;0.50;;;0.50;;
15106;SDS011;7654;45.308;-75.096;2023-06-05T08:30:22;0.50;;;0.50;;
15106;SDS011;7654;45.308;-75.096;2023-06-05T08:32:52;0.50;;;0.50;;
15106;SDS011;7654;45.308;-75.096;2023-06-05T08:35:22;0.60;;;0.60;;
15106;SDS011;7654;45.308;-75.096;2023-06-05T08:37:53;0.50;;;0.50;;
15106;SDS011;7654;45.308;-75.096;2023-06-05T08:40:25;0.50;;;0.50;;
15106;SDS011;7654;45.308;-75.096;2023-06-05T08:43:01;0.50;;;0.50;;
15106;SDS011;7654;45.308;-75.096;2023-06-05T08:45:32;0.40;;;0.40;;
15106;SDS011;7654;45.308;-75.096;2023-06-05T08:48:03;0.40;;;0.40;;
15106;SDS011;7654;45.308;-75.096;2023-06-05T08:50:38;0.50;;;0.50;;
15106;SDS011;7654;45.308;-75.096;2023-06-05T08:53:10;0.40;;;0.40;;
15106;SDS011;7654;45.308;-75.096;2023-06-05T08:55:47;0.40;;;0.40;;
15106;SDS011;7654;45.308;-75.096;2023-06-05T08:58:25;0.50;;;0.50;;
15106;SDS011;7654;45.308;-75.096;2023-06-05T09:00:55;0.50;;;0.50;;
15106;SDS011;7654;45.308;-75.096;2023-06-05T09:03:25;0.40;;;0.40;;
15106;SDS011;7654;45.308;-75.096;2023-06-05T09:05:56;0.50;;;0.50;;
15106;SDS011;7654;45.308;-75.096;2023-06-05T09:08:30;0.50;;;0.50;;
15106;SDS011;7654;45.308;-75.096;2023-06-05T09:11:22;0.50;;;0.50;;
15106;SDS011;7654;45.308;-75.096;2023-06-05T09:13:56;0.50;;;0.50;;
15106;SDS011;7654;45.308;-75.096;2023-06-05T09:16:34;0.57;;;0.57;;
15106;SDS011;7654;45.308;-75.096;2023-06-05T09:19:06;0.50;;;0.50;;
15106;SDS011;7654;45.308;-75.096;2023-06-05T09:21:36;0.50;;;0.50;;
15106;SDS011;7654;45.308;-75.096;2023-06-05T09:24:13;0.40;;;0.40;;
15106;SDS011;7654;45.308;-75.096;2023-06-05T09:26:49;0.47;;;0.47;;
15106;SDS011;7654;45.308;-75.096;2023-06-05T09:29:26;0.50;;;0.50;;
15106;SDS011;7654;45.308;-75.096;2023-06-05T09:31:57;0.47;;;0.47;;
15106;SDS011;7654;45.308;-75.096;2023-06-05T09:34:29;0.50;;;0.50;;
15106;SDS011;7654;45.308;-75.096;2023-06-05T09:37:01;0.40;;;0.40;;
15106;SDS011;7654;45.308;-75.096;2023-06-05T09:39:33;0.40;;;0.40;;
15106;SDS011;7654;45.308;-75.096;2023-06-05T09:42:04;0.40;;;0.40;;
15106;SDS011;7654;45.308;-75.096;2023-06-05T09:44:37;0.40;;;0.40;;
15106;SDS011;7654;45.308;-75.096;2023-06-05T09:47:08;0.50;;;0.50;;
15106;SDS011;7654;45.308;-75.096;2023-06-05T09:49:47;0.50;;;0.50;;
15106;SDS011;7654;45.308;-75.096;2023-06-05T09:52:17;0.47;;;0.47;;
15106;SDS011;7654;45.308;-75.096;2023-06-05T09:54:48;0.50;;;0.50;;
15106;SDS011;7654;45.308;-75.096;2023-06-05T09:57:22;0.50;;;0.50;;
15106;SDS011;7654;45.308;-75.096;2023-06-05T09:59:56;0.50;;;0.50;;
15106;SDS011;7654;45.308;-75.096;2023-06-05T10:02:32;0.50;;;0.50;;
15106;SDS011;7654;45.308;-75.096;2023-06-05T10:05:06;0.50;;;0.50;;
15106;SDS011;7654;45.308;-75.096;2023-06-05T10:07:40;0.50;;;0.50;;
15106;SDS011;7654;45.308;-75.096;2023-06-05T10:10:11;0.50;;;0.50;;
15106;SDS011;7654;45.308;-75.096;2023-06-05T10:12:42;0.50;;;0.50;;
15106;SDS011;7654;45.308;-75.096;2023-06-05T10:15:14;0.40;;;0.40;;
15106;SDS011;7654;45.308;-75.096;2023-06-05T10:17:46;0.40;;;0.40;;
15106;SDS011;7654;45.308;-75.096;2023-06-05T10:20:18;0.50;;;0.50;;
15106;SDS011;7654;45.308;-75.096;2023-06-05T10:22:49;0.40;;;0.40;;
15106;SDS011;7654;45.308;-75.096;2023-06-05T10:25:20;0.40;;;0.40;;
15106;SDS011;7654;45.308;-75.096;2023-06-05T10:27:56;0.50;;;0.50;;
15106;SDS011;7654;45.308;-75.096;2023-06-05T10:33:52;0.47;;;0.47;;
15106;SDS011;7654;45.308;-75.096;2023-06-05T10:36:36;0.40;;;0.40;;
15106;SDS011;7654;45.308;-75.096;2023-06-05T10:39:28;0.50;;;0.50;;
15106;SDS011;7654;45.308;-75.096;2023-06-05T10:42:00;0.47;;;0.47;;
15106;SDS011;7654;45.308;-75.096;2023-06-05T10:44:39;0.40;;;0.40;;
15106;SDS011;7654;45.308;-75.096;2023-06-05T10:50:23;0.40;;;0.40;;
15106;SDS011;7654;45.308;-75.096;2023-06-05T10:52:55;0.40;;;0.40;;
15106;SDS011;7654;45.308;-75.096;2023-06-05T10:55:27;0.40;;;0.40;;
15106;SDS011;7654;45.308;-75.096;2023-06-05T10:58:12;0.40;;;0.40;;
15106;SDS011;7654;45.308;-75.096;2023-06-05T11:03:53;0.40;;;0.40;;
15106;SDS011;7654;45.308;-75.096;2023-06-05T11:06:30;0.40;;;0.40;;
15106;SDS011;7654;45.308;-75.096;2023-06-05T11:09:07;0.40;;;0.40;;
15106;SDS011;7654;45.308;-75.096;2023-06-05T11:11:57;0.40;;;0.40;;
15106;SDS011;7654;45.308;-75.096;2023-06-05T11:14:44;0.40;;;0.40;;
15106;SDS011;7654;45.308;-75.096;2023-06-05T11:17:27;0.40;;;0.40;;
15106;SDS011;7654;45.308;-75.096;2023-06-05T11:19:58;0.40;;;0.40;;
15106;SDS011;7654;45.308;-75.096;2023-06-05T11:22:33;0.40;;;0.40;;
15106;SDS011;7654;45.308;-75.096;2023-06-05T11:25:36;0.40;;;0.40;;
15106;SDS011;7654;45.308;-75.096;2023-06-05T11:28:06;0.50;;;0.50;;
15106;SDS011;7654;45.308;-75.096;2023-06-05T11:30:38;0.40;;;0.40;;
15106;SDS011;7654;45.308;-75.096;2023-06-05T11:33:16;0.40;;;0.40;;
15106;SDS011;7654;45.308;-75.096;2023-06-05T11:35:48;0.40;;;0.40;;
15106;SDS011;7654;45.308;-75.096;2023-06-05T11:38:22;0.40;;;0.40;;
15106;SDS011;7654;45.308;-75.096;2023-06-05T11:40:52;0.37;;;0.37;;
15106;SDS011;7654;45.308;-75.096;2023-06-05T11:43:23;0.40;;;0.40;;
15106;SDS011;7654;45.308;-75.096;2023-06-05T11:45:54;0.30;;;0.30;;
15106;SDS011;7654;45.308;-75.096;2023-06-05T11:48:25;0.40;;;0.40;;
15106;SDS011;7654;45.308;-75.096;2023-06-05T11:50:56;0.40;;;0.40;;
15106;SDS011;7654;45.308;-75.096;2023-06-05T11:53:30;0.40;;;0.40;;
15106;SDS011;7654;45.308;-75.096;2023-06-05T11:56:01;0.30;;;0.30;;
15106;SDS011;7654;45.308;-75.096;2023-06-05T11:58:44;0.40;;;0.40;;
15106;SDS011;7654;45.308;-75.096;2023-06-05T12:01:14;0.30;;;0.30;;
15106;SDS011;7654;45.308;-75.096;2023-06-05T12:04:03;0.40;;;0.40;;
15106;SDS011;7654;45.308;-75.096;2023-06-05T12:06:39;0.30;;;0.30;;
15106;SDS011;7654;45.308;-75.096;2023-06-05T12:09:12;0.30;;;0.30;;
15106;SDS011;7654;45.308;-75.096;2023-06-05T12:11:44;0.33;;;0.33;;
15106;SDS011;7654;45.308;-75.096;2023-06-05T12:14:27;0.40;;;0.40;;
15106;SDS011;7654;45.308;-75.096;2023-06-05T12:16:59;0.40;;;0.40;;
15106;SDS011;7654;45.308;-75.096;2023-06-05T12:19:31;0.40;;;0.40;;
15106;SDS011;7654;45.308;-75.096;2023-06-05T12:22:02;0.40;;;0.40;;
15106;SDS011;7654;45.308;-75.096;2023-06-05T12:24:34;0.37;;;0.37;;
15106;SDS011;7654;45.308;-75.096;2023-06-05T12:27:05;0.30;;;0.30;;
15106;SDS011;7654;45.308;-75.096;2023-06-05T12:29:36;0.40;;;0.40;;
15106;SDS011;7654;45.308;-75.096;2023-06-05T12:32:20;0.40;;;0.40;;
15106;SDS011;7654;45.308;-75.096;2023-06-05T12:34:52;0.30;;;0.30;;
15106;SDS011;7654;45.308;-75.096;2023-06-05T12:37:32;0.40;;;0.40;;
15106;SDS011;7654;45.308;-75.096;2023-06-05T12:40:07;0.30;;;0.30;;
15106;SDS011;7654;45.308;-75.096;2023-06-05T12:42:54;0.30;;;0.30;;
15106;SDS011;7654;45.308;-75.096;2023-06-05T12:45:25;0.30;;;0.30;;
15106;SDS011;7654;45.308;-75.096;2023-06-05T12:47:58;0.40;;;0.40;;
15106;SDS011;7654;45.308;-75.096;2023-06-05T12:50:28;0.30;;;0.30;;
15106;SDS011;7654;45.308;-75.096;2023-06-05T12:52:58;0.30;;;0.30;;
15106;SDS011;7654;45.308;-75.096;2023-06-05T12:55:31;0.30;;;0.30;;
15106;SDS011;7654;45.308;-75.096;2023-06-05T12:58:02;0.30;;;0.30;;
15106;SDS011;7654;45.308;-75.096;2023-06-05T13:00:33;0.30;;;0.30;;
15106;SDS011;7654;45.308;-75.096;2023-06-05T13:03:04;0.30;;;0.30;;
15106;SDS011;7654;45.308;-75.096;2023-06-05T13:05:34;0.40;;;0.40;;
15106;SDS011;7654;45.308;-75.096;2023-06-05T13:08:04;0.30;;;0.30;;
15106;SDS011;7654;45.308;-75.096;2023-06-05T13:10:37;0.30;;;0.30;;
15106;SDS011;7654;45.308;-75.096;2023-06-05T13:13:07;0.30;;;0.30;;
15106;SDS011;7654;45.308;-75.096;2023-06-05T13:15:38;0.30;;;0.30;;
15106;SDS011;7654;45.308;-75.096;2023-06-05T13:18:09;0.30;;;0.30;;
15106;SDS011;7654;45.308;-75.096;2023-06-05T13:20:40;0.33;;;0.33;;
15106;SDS011;7654;45.308;-75.096;2023-06-05T13:23:10;0.30;;;0.30;;
15106;SDS011;7654;45.308;-75.096;2023-06-05T13:25:42;0.30;;;0.30;;
15106;SDS011;7654;45.308;-75.096;2023-06-05T13:28:13;0.30;;;0.30;;
15106;SDS011;7654;45.308;-75.096;2023-06-05T13:30:43;0.30;;;0.30;;
15106;SDS011;7654;45.308;-75.096;2023-06-05T13:33:14;0.30;;;0.30;;
15106;SDS011;7654;45.308;-75.096;2023-06-05T13:35:46;0.30;;;0.30;;
15106;SDS011;7654;45.308;-75.096;2023-06-05T13:38:16;0.30;;;0.30;;
15106;SDS011;7654;45.308;-75.096;2023-06-05T13:40:49;0.30;;;0.30;;
15106;SDS011;7654;45.308;-75.096;2023-06-05T13:43:19;0.30;;;0.30;;
15106;SDS011;7654;45.308;-75.096;2023-06-05T13:45:50;0.30;;;0.30;;
15106;SDS011;7654;45.308;-75.096;2023-06-05T13:48:20;0.20;;;0.20;;
15106;SDS011;7654;45.308;-75.096;2023-06-05T13:50:51;0.30;;;0.30;;
15106;SDS011;7654;45.308;-75.096;2023-06-05T13:53:21;0.30;;;0.30;;
15106;SDS011;7654;45.308;-75.096;2023-06-05T13:55:53;0.30;;;0.30;;
15106;SDS011;7654;45.308;-75.096;2023-06-05T13:58:24;0.30;;;0.30;;
15106;SDS011;7654;45.308;-75.096;2023-06-05T14:00:54;0.30;;;0.30;;
15106;SDS011;7654;45.308;-75.096;2023-06-05T14:03:25;0.30;;;0.30;;
15106;SDS011;7654;45.308;-75.096;2023-06-05T14:05:55;0.20;;;0.20;;
15106;SDS011;7654;45.308;-75.096;2023-06-05T14:08:26;0.30;;;0.30;;
15106;SDS011;7654;45.308;-75.096;2023-06-05T14:10:58;0.30;;;0.30;;
15106;SDS011;7654;45.308;-75.096;2023-06-05T14:13:29;0.30;;;0.30;;
15106;SDS011;7654;45.308;-75.096;2023-06-05T14:15:59;0.30;;;0.30;;
15106;SDS011;7654;45.308;-75.096;2023-06-05T14:18:30;0.30;;;0.30;;
15106;SDS011;7654;45.308;-75.096;2023-06-05T14:21:01;0.20;;;0.20;;
15106;SDS011;7654;45.308;-75.096;2023-06-05T14:23:32;0.30;;;0.30;;
15106;SDS011;7654;45.308;-75.096;2023-06-05T14:26:04;0.30;;;0.30;;
15106;SDS011;7654;45.308;-75.096;2023-06-05T14:28:35;0.30;;;0.30;;
15106;SDS011;7654;45.308;-75.096;2023-06-05T14:31:06;0.20;;;0.20;;
15106;SDS011;7654;45.308;-75.096;2023-06-05T14:33:36;0.20;;;0.20;;
15106;SDS011;7654;45.308;-75.096;2023-06-05T14:36:07;0.20;;;0.20;;
15106;SDS011;7654;45.308;-75.096;2023-06-05T14:38:38;0.20;;;0.20;;
15106;SDS011;7654;45.308;-75.096;2023-06-05T14:41:10;0.20;;;0.20;;
15106;SDS011;7654;45.308;-75.096;2023-06-05T14:43:40;0.30;;;0.30;;
15106;SDS011;7654;45.308;-75.096;2023-06-05T14:46:10;0.30;;;0.30;;
15106;SDS011;7654;45.308;-75.096;2023-06-05T14:48:41;0.30;;;0.30;;
15106;SDS011;7654;45.308;-75.096;2023-06-05T14:51:12;0.27;;;0.27;;
15106;SDS011;7654;45.308;-75.096;2023-06-05T14:53:43;0.20;;;0.20;;
15106;SDS011;7654;45.308;-75.096;2023-06-05T14:56:15;0.20;;;0.20;;
15106;SDS011;7654;45.308;-75.096;2023-06-05T14:58:46;0.20;;;0.20;;
15106;SDS011;7654;45.308;-75.096;2023-06-05T15:01:16;0.27;;;0.27;;
15106;SDS011;7654;45.308;-75.096;2023-06-05T15:03:46;0.20;;;0.20;;
15106;SDS011;7654;45.308;-75.096;2023-06-05T15:06:18;0.30;;;0.30;;
15106;SDS011;7654;45.308;-75.096;2023-06-05T15:08:51;0.30;;;0.30;;
15106;SDS011;7654;45.308;-75.096;2023-06-05T15:11:22;0.20;;;0.20;;